sensor_id;sensor_type;location;lat;lon;timestamp;temperature;humidity
43651;DHT22;29247;50.944;5.382;2023-06-14T00:01:03;22.20;47.40
43651;DHT22;29247;50.944;5.382;2023-06-14T00:03:31;22.20;47.60
43651;DHT22;29247;50.944;5.382;2023-06-14T00:05:59;22.20;47.90
43651;DHT22;29247;50.944;5.382;2023-06-14T00:08:25;22.20;47.90
43651;DHT22;29247;50.944;5.382;2023-06-14T00:10:51;22.20;48.00
43651;DHT22;29247;50.944;5.382;2023-06-14T00:13:17;22.10;48.10
43651;DHT22;29247;50.944;5.382;2023-06-14T00:15:43;22.10;48.20
43651;DHT22;29247;50.944;5.382;2023-06-14T00:18:11;22.10;48.20
43651;DHT22;29247;50.944;5.382;2023-06-14T00:20:37;22.00;48.40
43651;DHT22;29247;50.944;5.382;2023-06-14T00:23:07;22.10;48.80
43651;DHT22;29247;50.944;5.382;2023-06-14T00:25:32;22.00;48.90
43651;DHT22;29247;50.944;5.382;2023-06-14T00:27:58;22.00;48.80
43651;DHT22;29247;50.944;5.382;2023-06-14T00:30:24;21.90;48.40
43651;DHT22;29247;50.944;5.382;2023-06-14T00:32:50;21.90;48.50
43651;DHT22;29247;50.944;5.382;2023-06-14T00:35:18;21.90;48.30
43651;DHT22;29247;50.944;5.382;2023-06-14T00:37:47;21.80;48.80
43651;DHT22;29247;50.944;5.382;2023-06-14T00:40:13;21.80;49.00
43651;DHT22;29247;50.944;5.382;2023-06-14T00:42:38;21.80;49.40
43651;DHT22;29247;50.944;5.382;2023-06-14T00:45:07;21.80;49.80
43651;DHT22;29247;50.944;5.382;2023-06-14T00:47:38;21.80;49.50
43651;DHT22;29247;50.944;5.382;2023-06-14T00:50:07;21.70;49.60
43651;DHT22;29247;50.944;5.382;2023-06-14T00:52:36;21.70;49.50
43651;DHT22;29247;50.944;5.382;2023-06-14T00:55:01;21.70;49.20
43651;DHT22;29247;50.944;5.382;2023-06-14T00:57:27;21.60;49.50
43651;DHT22;29247;50.944;5.382;2023-06-14T00:59:55;21.60;49.80
43651;DHT22;29247;50.944;5.382;2023-06-14T01:02:21;21.60;49.90
43651;DHT22;29247;50.944;5.382;2023-06-14T01:04:48;21.50;50.10
43651;DHT22;29247;50.944;5.382;2023-06-14T01:15:14;21.40;49.70
43651;DHT22;29247;50.944;5.382;2023-06-14T01:17:46;21.40;49.70
43651;DHT22;29247;50.944;5.382;2023-06-14T01:20:17;21.30;49.60
43651;DHT22;29247;50.944;5.382;2023-06-14T01:22:56;21.30;49.40
43651;DHT22;29247;50.944;5.382;2023-06-14T01:25:25;21.20;49.60
43651;DHT22;29247;50.944;5.382;2023-06-14T01:27:57;21.20;49.60
43651;DHT22;29247;50.944;5.382;2023-06-14T01:30:26;21.20;50.00
43651;DHT22;29247;50.944;5.382;2023-06-14T01:32:56;21.20;50.40
43651;DHT22;29247;50.944;5.382;2023-06-14T01:35:24;21.20;50.40
43651;DHT22;29247;50.944;5.382;2023-06-14T01:37:51;21.20;50.50
43651;DHT22;29247;50.944;5.382;2023-06-14T01:40:18;21.10;50.50
43651;DHT22;29247;50.944;5.382;2023-06-14T01:42:47;21.00;50.90
43651;DHT22;29247;50.944;5.382;2023-06-14T01:45:14;21.00;51.40
43651;DHT22;29247;50.944;5.382;2023-06-14T01:47:40;20.90;51.80
43651;DHT22;29247;50.944;5.382;2023-06-14T01:50:07;20.90;52.20
43651;DHT22;29247;50.944;5.382;2023-06-14T01:52:33;20.90;52.20
43651;DHT22;29247;50.944;5.382;2023-06-14T01:54:59;20.80;52.10
43651;DHT22;29247;50.944;5.382;2023-06-14T01:57:30;20.70;52.40
43651;DHT22;29247;50.944;5.382;2023-06-14T01:59:59;20.70;52.80
43651;DHT22;29247;50.944;5.382;2023-06-14T02:02:24;20.70;53.00
43651;DHT22;29247;50.944;5.382;2023-06-14T02:04:52;20.60;53.30
43651;DHT22;29247;50.944;5.382;2023-06-14T02:07:18;20.60;53.40
43651;DHT22;29247;50.944;5.382;2023-06-14T02:09:43;20.60;53.50
43651;DHT22;29247;50.944;5.382;2023-06-14T02:12:09;20.50;53.30
43651;DHT22;29247;50.944;5.382;2023-06-14T02:14:38;20.40;53.40
43651;DHT22;29247;50.944;5.382;2023-06-14T02:17:06;20.40;53.70
43651;DHT22;29247;50.944;5.382;2023-06-14T02:19:35;20.30;53.70
43651;DHT22;29247;50.944;5.382;2023-06-14T02:22:00;20.20;54.50
43651;DHT22;29247;50.944;5.382;2023-06-14T02:24:30;20.20;54.10
43651;DHT22;29247;50.944;5.382;2023-06-14T02:26:59;20.10;54.50
43651;DHT22;29247;50.944;5.382;2023-06-14T02:29:25;20.00;55.00
43651;DHT22;29247;50.944;5.382;2023-06-14T02:31:53;19.90;55.50
43651;DHT22;29247;50.944;5.382;2023-06-14T02:34:23;19.90;56.00
43651;DHT22;29247;50.944;5.382;2023-06-14T02:36:49;19.80;56.30
43651;DHT22;29247;50.944;5.382;2023-06-14T02:39:15;19.90;56.30
43651;DHT22;29247;50.944;5.382;2023-06-14T02:41:41;19.80;56.20
43651;DHT22;29247;50.944;5.382;2023-06-14T02:44:07;19.80;56.30
43651;DHT22;29247;50.944;5.382;2023-06-14T02:46:35;19.70;56.20
43651;DHT22;29247;50.944;5.382;2023-06-14T02:49:01;19.70;56.30
43651;DHT22;29247;50.944;5.382;2023-06-14T02:51:27;19.70;56.80
43651;DHT22;29247;50.944;5.382;2023-06-14T02:53:53;19.60;57.10
43651;DHT22;29247;50.944;5.382;2023-06-14T02:56:19;19.60;56.90
43651;DHT22;29247;50.944;5.382;2023-06-14T02:58:44;19.60;56.80
43651;DHT22;29247;50.944;5.382;2023-06-14T03:01:10;19.60;57.00
43651;DHT22;29247;50.944;5.382;2023-06-14T03:03:41;19.60;57.20
43651;DHT22;29247;50.944;5.382;2023-06-14T03:06:07;19.60;57.80
43651;DHT22;29247;50.944;5.382;2023-06-14T03:08:41;19.50;56.90
43651;DHT22;29247;50.944;5.382;2023-06-14T03:11:07;19.50;56.70
43651;DHT22;29247;50.944;5.382;2023-06-14T03:13:37;19.50;56.60
43651;DHT22;29247;50.944;5.382;2023-06-14T03:16:04;19.40;56.60
43651;DHT22;29247;50.944;5.382;2023-06-14T03:18:30;19.40;56.80
43651;DHT22;29247;50.944;5.382;2023-06-14T03:21:03;19.40;57.10
43651;DHT22;29247;50.944;5.382;2023-06-14T03:23:31;19.40;57.50
43651;DHT22;29247;50.944;5.382;2023-06-14T03:25:57;19.40;57.70
43651;DHT22;29247;50.944;5.382;2023-06-14T03:28:25;19.40;57.60
43651;DHT22;29247;50.944;5.382;2023-06-14T03:30:53;19.40;57.30
43651;DHT22;29247;50.944;5.382;2023-06-14T03:33:21;19.40;57.00
43651;DHT22;29247;50.944;5.382;2023-06-14T03:35:50;19.40;56.90
43651;DHT22;29247;50.944;5.382;2023-06-14T03:38:18;19.30;56.90
43651;DHT22;29247;50.944;5.382;2023-06-14T03:40:44;19.20;56.90
43651;DHT22;29247;50.944;5.382;2023-06-14T03:43:12;19.20;57.00
43651;DHT22;29247;50.944;5.382;2023-06-14T03:45:38;19.10;57.10
43651;DHT22;29247;50.944;5.382;2023-06-14T03:48:08;19.10;57.50
43651;DHT22;29247;50.944;5.382;2023-06-14T03:50:34;19.10;57.60
43651;DHT22;29247;50.944;5.382;2023-06-14T03:53:00;19.10;57.70
43651;DHT22;29247;50.944;5.382;2023-06-14T03:55:28;19.10;57.70
43651;DHT22;29247;50.944;5.382;2023-06-14T03:57:57;19.10;57.80
43651;DHT22;29247;50.944;5.382;2023-06-14T04:00:23;19.10;57.70
43651;DHT22;29247;50.944;5.382;2023-06-14T04:02:49;19.00;57.50
43651;DHT22;29247;50.944;5.382;2023-06-14T04:05:15;19.00;57.60
43651;DHT22;29247;50.944;5.382;2023-06-14T04:07:42;19.00;57.60
43651;DHT22;29247;50.944;5.382;2023-06-14T04:10:10;19.00;57.70
43651;DHT22;29247;50.944;5.382;2023-06-14T04:12:41;19.00;57.70
43651;DHT22;29247;50.944;5.382;2023-06-14T04:15:07;19.00;57.80
43651;DHT22;29247;50.944;5.382;2023-06-14T04:17:34;19.00;57.70
43651;DHT22;29247;50.944;5.382;2023-06-14T04:20:00;19.00;57.80
43651;DHT22;29247;50.944;5.382;2023-06-14T04:22:29;19.00;58.00
43651;DHT22;29247;50.944;5.382;2023-06-14T04:24:58;19.00;58.10
43651;DHT22;29247;50.944;5.382;2023-06-14T04:27:25;19.00;58.20
43651;DHT22;29247;50.944;5.382;2023-06-14T04:29:55;19.00;58.50
43651;DHT22;29247;50.944;5.382;2023-06-14T04:32:28;19.00;58.80
43651;DHT22;29247;50.944;5.382;2023-06-14T04:34:55;19.10;58.90
43651;DHT22;29247;50.944;5.382;2023-06-14T04:37:21;19.00;58.90
43651;DHT22;29247;50.944;5.382;2023-06-14T04:39:48;19.10;59.00
43651;DHT22;29247;50.944;5.382;2023-06-14T04:42:17;19.10;59.00
43651;DHT22;29247;50.944;5.382;2023-06-14T04:44:46;19.10;59.00
43651;DHT22;29247;50.944;5.382;2023-06-14T04:47:12;19.10;59.10
43651;DHT22;29247;50.944;5.382;2023-06-14T04:49:42;19.20;59.30
43651;DHT22;29247;50.944;5.382;2023-06-14T04:52:07;19.20;59.40
43651;DHT22;29247;50.944;5.382;2023-06-14T04:54:36;19.20;59.40
43651;DHT22;29247;50.944;5.382;2023-06-14T04:57:08;19.20;59.40
43651;DHT22;29247;50.944;5.382;2023-06-14T04:59:34;19.20;59.40
43651;DHT22;29247;50.944;5.382;2023-06-14T05:02:01;19.20;59.50
43651;DHT22;29247;50.944;5.382;2023-06-14T05:04:27;19.20;59.60
43651;DHT22;29247;50.944;5.382;2023-06-14T05:06:53;19.20;59.70
43651;DHT22;29247;50.944;5.382;2023-06-14T05:09:24;19.30;60.00
43651;DHT22;29247;50.944;5.382;2023-06-14T05:11:50;19.30;60.30
43651;DHT22;29247;50.944;5.382;2023-06-14T05:14:16;19.40;60.60
43651;DHT22;29247;50.944;5.382;2023-06-14T05:16:42;19.40;60.70
43651;DHT22;29247;50.944;5.382;2023-06-14T05:19:08;19.40;60.80
43651;DHT22;29247;50.944;5.382;2023-06-14T05:21:36;19.50;60.80
43651;DHT22;29247;50.944;5.382;2023-06-14T05:24:02;19.50;60.60
43651;DHT22;29247;50.944;5.382;2023-06-14T05:26:28;19.50;60.70
43651;DHT22;29247;50.944;5.382;2023-06-14T05:28:59;19.50;60.70
43651;DHT22;29247;50.944;5.382;2023-06-14T05:31:31;19.60;60.70
43651;DHT22;29247;50.944;5.382;2023-06-14T05:33:56;19.60;60.50
43651;DHT22;29247;50.944;5.382;2023-06-14T05:36:22;19.70;60.40
43651;DHT22;29247;50.944;5.382;2023-06-14T05:38:48;19.70;60.40
43651;DHT22;29247;50.944;5.382;2023-06-14T05:41:16;19.70;59.80
43651;DHT22;29247;50.944;5.382;2023-06-14T05:43:42;19.70;59.50
43651;DHT22;29247;50.944;5.382;2023-06-14T05:46:08;19.80;59.40
43651;DHT22;29247;50.944;5.382;2023-06-14T05:48:34;19.80;59.20
43651;DHT22;29247;50.944;5.382;2023-06-14T05:51:00;19.90;59.00
43651;DHT22;29247;50.944;5.382;2023-06-14T05:53:26;19.90;58.80
43651;DHT22;29247;50.944;5.382;2023-06-14T05:55:54;20.00;58.70
43651;DHT22;29247;50.944;5.382;2023-06-14T05:58:22;20.00;58.40
43651;DHT22;29247;50.944;5.382;2023-06-14T06:00:51;20.10;58.20
43651;DHT22;29247;50.944;5.382;2023-06-14T06:03:18;20.10;57.80
43651;DHT22;29247;50.944;5.382;2023-06-14T06:05:47;20.10;57.40
43651;DHT22;29247;50.944;5.382;2023-06-14T06:08:12;20.20;57.20
43651;DHT22;29247;50.944;5.382;2023-06-14T06:10:39;20.20;57.10
43651;DHT22;29247;50.944;5.382;2023-06-14T06:13:05;20.30;57.20
43651;DHT22;29247;50.944;5.382;2023-06-14T06:15:31;20.40;57.20
43651;DHT22;29247;50.944;5.382;2023-06-14T06:17:56;20.40;57.20
43651;DHT22;29247;50.944;5.382;2023-06-14T06:20:26;20.50;57.00
43651;DHT22;29247;50.944;5.382;2023-06-14T06:22:56;20.60;57.00
43651;DHT22;29247;50.944;5.382;2023-06-14T06:25:27;20.70;56.90
43651;DHT22;29247;50.944;5.382;2023-06-14T06:28:17;20.70;56.70
43651;DHT22;29247;50.944;5.382;2023-06-14T06:30:49;20.80;56.60
43651;DHT22;29247;50.944;5.382;2023-06-14T06:33:18;20.90;56.20
43651;DHT22;29247;50.944;5.382;2023-06-14T06:35:44;21.00;56.20
43651;DHT22;29247;50.944;5.382;2023-06-14T06:38:17;21.10;55.80
43651;DHT22;29247;50.944;5.382;2023-06-14T06:40:46;21.30;55.80
43651;DHT22;29247;50.944;5.382;2023-06-14T06:43:14;21.40;55.60
43651;DHT22;29247;50.944;5.382;2023-06-14T06:45:45;21.50;55.40
43651;DHT22;29247;50.944;5.382;2023-06-14T06:48:13;21.50;54.80
43651;DHT22;29247;50.944;5.382;2023-06-14T06:50:39;21.70;55.20
43651;DHT22;29247;50.944;5.382;2023-06-14T06:53:09;22.10;55.20
43651;DHT22;29247;50.944;5.382;2023-06-14T06:55:35;22.70;54.40
43651;DHT22;29247;50.944;5.382;2023-06-14T06:58:01;23.50;52.70
43651;DHT22;29247;50.944;5.382;2023-06-14T07:00:34;24.30;50.20
43651;DHT22;29247;50.944;5.382;2023-06-14T07:03:00;25.00;48.00
43651;DHT22;29247;50.944;5.382;2023-06-14T07:05:26;25.70;48.00
43651;DHT22;29247;50.944;5.382;2023-06-14T07:07:54;26.40;47.20
43651;DHT22;29247;50.944;5.382;2023-06-14T07:10:22;27.00;45.60
43651;DHT22;29247;50.944;5.382;2023-06-14T07:12:50;27.60;43.30
43651;DHT22;29247;50.944;5.382;2023-06-14T07:15:16;28.00;42.30
43651;DHT22;29247;50.944;5.382;2023-06-14T07:17:42;28.20;40.70
43651;DHT22;29247;50.944;5.382;2023-06-14T07:20:10;28.40;39.20
43651;DHT22;29247;50.944;5.382;2023-06-14T07:22:42;28.60;39.70
43651;DHT22;29247;50.944;5.382;2023-06-14T07:25:13;28.80;39.40
43651;DHT22;29247;50.944;5.382;2023-06-14T07:27:40;28.70;38.70
43651;DHT22;29247;50.944;5.382;2023-06-14T07:30:07;28.50;38.10
43651;DHT22;29247;50.944;5.382;2023-06-14T07:32:34;28.20;37.80
43651;DHT22;29247;50.944;5.382;2023-06-14T07:35:00;27.90;38.40
43651;DHT22;29247;50.944;5.382;2023-06-14T07:37:26;27.60;39.00
43651;DHT22;29247;50.944;5.382;2023-06-14T07:39:53;27.50;39.90
43651;DHT22;29247;50.944;5.382;2023-06-14T07:42:19;27.40;40.70
43651;DHT22;29247;50.944;5.382;2023-06-14T07:44:45;27.30;40.00
43651;DHT22;29247;50.944;5.382;2023-06-14T07:47:10;27.30;39.50
43651;DHT22;29247;50.944;5.382;2023-06-14T07:49:36;27.20;40.30
43651;DHT22;29247;50.944;5.382;2023-06-14T07:52:05;27.10;39.70
43651;DHT22;29247;50.944;5.382;2023-06-14T07:54:35;27.00;40.40
43651;DHT22;29247;50.944;5.382;2023-06-14T07:57:03;26.90;40.70
43651;DHT22;29247;50.944;5.382;2023-06-14T07:59:29;26.80;40.50
43651;DHT22;29247;50.944;5.382;2023-06-14T08:01:58;26.70;40.70
43651;DHT22;29247;50.944;5.382;2023-06-14T08:04:23;26.60;41.90
43651;DHT22;29247;50.944;5.382;2023-06-14T08:06:50;26.50;42.50
43651;DHT22;29247;50.944;5.382;2023-06-14T08:09:16;26.50;42.30
43651;DHT22;29247;50.944;5.382;2023-06-14T08:11:42;26.40;42.80
43651;DHT22;29247;50.944;5.382;2023-06-14T08:14:09;26.40;42.90
43651;DHT22;29247;50.944;5.382;2023-06-14T08:16:39;26.40;43.00
43651;DHT22;29247;50.944;5.382;2023-06-14T08:19:06;26.40;42.80
43651;DHT22;29247;50.944;5.382;2023-06-14T08:21:32;26.30;43.20
43651;DHT22;29247;50.944;5.382;2023-06-14T08:23:59;26.40;43.00
43651;DHT22;29247;50.944;5.382;2023-06-14T08:26:25;26.30;43.10
43651;DHT22;29247;50.944;5.382;2023-06-14T08:28:57;26.30;43.50
43651;DHT22;29247;50.944;5.382;2023-06-14T08:31:25;26.30;43.50
43651;DHT22;29247;50.944;5.382;2023-06-14T08:33:57;26.30;43.50
43651;DHT22;29247;50.944;5.382;2023-06-14T08:36:26;26.30;43.70
43651;DHT22;29247;50.944;5.382;2023-06-14T08:38:51;26.30;43.10
43651;DHT22;29247;50.944;5.382;2023-06-14T08:41:23;26.30;44.20
43651;DHT22;29247;50.944;5.382;2023-06-14T08:43:52;26.30;43.70
43651;DHT22;29247;50.944;5.382;2023-06-14T08:46:20;26.40;43.80
43651;DHT22;29247;50.944;5.382;2023-06-14T08:48:49;26.40;43.50
43651;DHT22;29247;50.944;5.382;2023-06-14T08:51:18;26.40;43.60
43651;DHT22;29247;50.944;5.382;2023-06-14T08:53:51;26.40;43.60
43651;DHT22;29247;50.944;5.382;2023-06-14T08:56:20;26.40;43.70
43651;DHT22;29247;50.944;5.382;2023-06-14T08:58:47;26.50;43.60
43651;DHT22;29247;50.944;5.382;2023-06-14T09:01:15;26.50;43.10
43651;DHT22;29247;50.944;5.382;2023-06-14T09:03:43;26.50;42.70
43651;DHT22;29247;50.944;5.382;2023-06-14T09:06:10;26.50;42.70
43651;DHT22;29247;50.944;5.382;2023-06-14T09:08:47;26.50;43.00
43651;DHT22;29247;50.944;5.382;2023-06-14T09:11:18;26.50;42.60
43651;DHT22;29247;50.944;5.382;2023-06-14T09:13:45;26.50;42.30
43651;DHT22;29247;50.944;5.382;2023-06-14T09:16:12;26.50;42.10
43651;DHT22;29247;50.944;5.382;2023-06-14T09:18:39;26.50;42.30
43651;DHT22;29247;50.944;5.382;2023-06-14T09:21:09;26.50;42.30
43651;DHT22;29247;50.944;5.382;2023-06-14T09:23:39;26.50;41.70
43651;DHT22;29247;50.944;5.382;2023-06-14T09:26:15;26.50;40.90
43651;DHT22;29247;50.944;5.382;2023-06-14T09:28:50;26.50;41.60
43651;DHT22;29247;50.944;5.382;2023-06-14T09:31:20;26.50;42.30
43651;DHT22;29247;50.944;5.382;2023-06-14T09:33:49;26.60;42.60
43651;DHT22;29247;50.944;5.382;2023-06-14T09:36:17;26.60;42.10
43651;DHT22;29247;50.944;5.382;2023-06-14T09:38:52;26.60;42.20
43651;DHT22;29247;50.944;5.382;2023-06-14T09:41:21;26.60;42.30
43651;DHT22;29247;50.944;5.382;2023-06-14T09:43:58;26.60;41.40
43651;DHT22;29247;50.944;5.382;2023-06-14T09:46:26;26.60;39.50
43651;DHT22;29247;50.944;5.382;2023-06-14T09:48:52;26.50;39.00
43651;DHT22;29247;50.944;5.382;2023-06-14T09:51:19;26.50;39.00
43651;DHT22;29247;50.944;5.382;2023-06-14T09:53:48;26.40;37.90
43651;DHT22;29247;50.944;5.382;2023-06-14T09:59:05;26.30;38.90
43651;DHT22;29247;50.944;5.382;2023-06-14T10:01:32;26.40;39.90
43651;DHT22;29247;50.944;5.382;2023-06-14T10:04:06;26.40;39.70
43651;DHT22;29247;50.944;5.382;2023-06-14T10:06:36;26.40;38.30
43651;DHT22;29247;50.944;5.382;2023-06-14T10:09:08;26.30;39.60
43651;DHT22;29247;50.944;5.382;2023-06-14T10:11:35;26.30;39.20
43651;DHT22;29247;50.944;5.382;2023-06-14T10:14:04;26.40;39.90
43651;DHT22;29247;50.944;5.382;2023-06-14T10:22:38;26.50;39.50
43651;DHT22;29247;50.944;5.382;2023-06-14T10:25:13;26.50;40.10
43651;DHT22;29247;50.944;5.382;2023-06-14T10:27:51;26.50;39.60
43651;DHT22;29247;50.944;5.382;2023-06-14T10:30:17;26.50;38.40
43651;DHT22;29247;50.944;5.382;2023-06-14T10:33:06;26.50;38.30
43651;DHT22;29247;50.944;5.382;2023-06-14T10:35:32;26.50;38.70
43651;DHT22;29247;50.944;5.382;2023-06-14T10:38:11;26.50;38.80
43651;DHT22;29247;50.944;5.382;2023-06-14T10:40:38;26.50;38.20
43651;DHT22;29247;50.944;5.382;2023-06-14T10:43:26;26.50;38.30
43651;DHT22;29247;50.944;5.382;2023-06-14T10:46:17;26.50;37.90
43651;DHT22;29247;50.944;5.382;2023-06-14T10:48:45;26.50;38.60
43651;DHT22;29247;50.944;5.382;2023-06-14T10:51:23;26.50;38.70
43651;DHT22;29247;50.944;5.382;2023-06-14T10:53:50;26.50;38.70
43651;DHT22;29247;50.944;5.382;2023-06-14T10:56:31;26.50;38.60
43651;DHT22;29247;50.944;5.382;2023-06-14T10:59:01;26.50;38.10
43651;DHT22;29247;50.944;5.382;2023-06-14T11:01:36;26.60;39.20
43651;DHT22;29247;50.944;5.382;2023-06-14T11:04:12;26.60;39.40
43651;DHT22;29247;50.944;5.382;2023-06-14T11:06:50;26.60;38.80
43651;DHT22;29247;50.944;5.382;2023-06-14T11:12:12;26.70;38.90
43651;DHT22;29247;50.944;5.382;2023-06-14T11:14:39;26.70;37.80
43651;DHT22;29247;50.944;5.382;2023-06-14T11:17:11;26.70;37.10
43651;DHT22;29247;50.944;5.382;2023-06-14T11:19:37;26.60;36.20
43651;DHT22;29247;50.944;5.382;2023-06-14T11:22:03;26.60;36.90
43651;DHT22;29247;50.944;5.382;2023-06-14T11:24:28;26.70;37.00
43651;DHT22;29247;50.944;5.382;2023-06-14T11:26:57;26.70;36.90
43651;DHT22;29247;50.944;5.382;2023-06-14T11:29:23;26.70;36.50
43651;DHT22;29247;50.944;5.382;2023-06-14T11:31:53;26.70;36.40
43651;DHT22;29247;50.944;5.382;2023-06-14T11:34:22;26.80;36.60
43651;DHT22;29247;50.944;5.382;2023-06-14T11:36:47;26.80;35.60
43651;DHT22;29247;50.944;5.382;2023-06-14T11:39:16;26.80;34.60
43651;DHT22;29247;50.944;5.382;2023-06-14T11:41:44;26.80;34.20
43651;DHT22;29247;50.944;5.382;2023-06-14T11:44:12;26.80;33.00
43651;DHT22;29247;50.944;5.382;2023-06-14T11:46:43;26.70;32.10
43651;DHT22;29247;50.944;5.382;2023-06-14T11:49:09;26.60;32.50
43651;DHT22;29247;50.944;5.382;2023-06-14T11:51:38;26.60;32.80
43651;DHT22;29247;50.944;5.382;2023-06-14T11:54:05;26.70;33.80
43651;DHT22;29247;50.944;5.382;2023-06-14T11:56:31;26.70;33.20
43651;DHT22;29247;50.944;5.382;2023-06-14T11:59:01;26.70;33.30
43651;DHT22;29247;50.944;5.382;2023-06-14T12:01:30;26.80;33.10
43651;DHT22;29247;50.944;5.382;2023-06-14T12:03:57;26.80;32.90
43651;DHT22;29247;50.944;5.382;2023-06-14T12:06:30;26.90;33.10
43651;DHT22;29247;50.944;5.382;2023-06-14T12:09:03;26.90;32.90
43651;DHT22;29247;50.944;5.382;2023-06-14T12:11:34;26.90;32.80
43651;DHT22;29247;50.944;5.382;2023-06-14T12:14:00;26.90;32.50
43651;DHT22;29247;50.944;5.382;2023-06-14T12:16:38;26.90;33.50
43651;DHT22;29247;50.944;5.382;2023-06-14T12:19:13;26.90;33.30
43651;DHT22;29247;50.944;5.382;2023-06-14T12:21:42;26.90;32.90
43651;DHT22;29247;50.944;5.382;2023-06-14T12:24:12;26.90;32.40
43651;DHT22;29247;50.944;5.382;2023-06-14T12:26:38;26.90;32.70
43651;DHT22;29247;50.944;5.382;2023-06-14T12:29:07;26.80;32.80
43651;DHT22;29247;50.944;5.382;2023-06-14T12:31:35;26.90;33.70
43651;DHT22;29247;50.944;5.382;2023-06-14T12:34:01;26.80;33.10
43651;DHT22;29247;50.944;5.382;2023-06-14T12:36:29;26.80;33.50
43651;DHT22;29247;50.944;5.382;2023-06-14T12:38:57;26.80;34.70
43651;DHT22;29247;50.944;5.382;2023-06-14T12:41:23;26.90;34.50
43651;DHT22;29247;50.944;5.382;2023-06-14T12:43:55;26.90;33.90
43651;DHT22;29247;50.944;5.382;2023-06-14T12:46:20;27.00;34.20
43651;DHT22;29247;50.944;5.382;2023-06-14T12:48:46;27.00;34.10
43651;DHT22;29247;50.944;5.382;2023-06-14T12:51:11;27.10;34.40
43651;DHT22;29247;50.944;5.382;2023-06-14T12:53:37;27.10;34.50
43651;DHT22;29247;50.944;5.382;2023-06-14T12:56:03;27.20;34.40
43651;DHT22;29247;50.944;5.382;2023-06-14T12:58:31;27.20;34.90
43651;DHT22;29247;50.944;5.382;2023-06-14T13:00:56;27.20;35.10
43651;DHT22;29247;50.944;5.382;2023-06-14T13:03:22;27.20;34.20
43651;DHT22;29247;50.944;5.382;2023-06-14T13:05:48;27.20;34.20
43651;DHT22;29247;50.944;5.382;2023-06-14T13:08:14;27.20;35.00
43651;DHT22;29247;50.944;5.382;2023-06-14T13:10:40;27.20;34.30
43651;DHT22;29247;50.944;5.382;2023-06-14T13:13:05;27.20;33.80
43651;DHT22;29247;50.944;5.382;2023-06-14T13:15:36;27.20;33.00
43651;DHT22;29247;50.944;5.382;2023-06-14T13:18:01;27.20;33.70
43651;DHT22;29247;50.944;5.382;2023-06-14T13:20:28;27.20;34.70
43651;DHT22;29247;50.944;5.382;2023-06-14T13:22:56;27.20;34.40
43651;DHT22;29247;50.944;5.382;2023-06-14T13:25:22;27.30;34.60
43651;DHT22;29247;50.944;5.382;2023-06-14T13:27:50;27.30;34.10
43651;DHT22;29247;50.944;5.382;2023-06-14T13:30:21;27.20;34.60
43651;DHT22;29247;50.944;5.382;2023-06-14T13:32:49;27.20;33.30
43651;DHT22;29247;50.944;5.382;2023-06-14T13:35:17;27.20;33.40
43651;DHT22;29247;50.944;5.382;2023-06-14T13:37:45;27.20;33.80
43651;DHT22;29247;50.944;5.382;2023-06-14T13:40:11;27.20;34.50
43651;DHT22;29247;50.944;5.382;2023-06-14T13:42:40;27.30;35.10
43651;DHT22;29247;50.944;5.382;2023-06-14T13:45:06;27.40;35.30
43651;DHT22;29247;50.944;5.382;2023-06-14T13:47:37;27.40;34.60
43651;DHT22;29247;50.944;5.382;2023-06-14T13:50:06;27.40;34.80
43651;DHT22;29247;50.944;5.382;2023-06-14T13:52:35;27.30;34.40
43651;DHT22;29247;50.944;5.382;2023-06-14T13:55:01;27.30;34.00
43651;DHT22;29247;50.944;5.382;2023-06-14T13:57:33;27.30;34.80
43651;DHT22;29247;50.944;5.382;2023-06-14T14:00:01;27.30;35.20
43651;DHT22;29247;50.944;5.382;2023-06-14T14:02:28;27.30;33.90
43651;DHT22;29247;50.944;5.382;2023-06-14T14:04:59;27.40;34.10
43651;DHT22;29247;50.944;5.382;2023-06-14T14:07:29;27.40;33.40
43651;DHT22;29247;50.944;5.382;2023-06-14T14:09:55;27.40;33.30
43651;DHT22;29247;50.944;5.382;2023-06-14T14:12:23;27.40;33.30
43651;DHT22;29247;50.944;5.382;2023-06-14T14:14:49;27.40;34.10
43651;DHT22;29247;50.944;5.382;2023-06-14T14:17:18;27.40;33.80
43651;DHT22;29247;50.944;5.382;2023-06-14T14:19:44;27.40;33.90
43651;DHT22;29247;50.944;5.382;2023-06-14T14:22:12;27.40;34.10
43651;DHT22;29247;50.944;5.382;2023-06-14T14:24:40;27.50;34.20
43651;DHT22;29247;50.944;5.382;2023-06-14T14:27:08;27.50;34.10
43651;DHT22;29247;50.944;5.382;2023-06-14T14:29:34;27.50;33.90
43651;DHT22;29247;50.944;5.382;2023-06-14T14:32:00;27.40;33.20
43651;DHT22;29247;50.944;5.382;2023-06-14T14:34:27;27.40;33.80
43651;DHT22;29247;50.944;5.382;2023-06-14T14:36:56;27.40;34.00
43651;DHT22;29247;50.944;5.382;2023-06-14T14:39:24;27.40;33.50
43651;DHT22;29247;50.944;5.382;2023-06-14T14:41:53;27.40;33.50
43651;DHT22;29247;50.944;5.382;2023-06-14T14:44:21;27.30;33.90
43651;DHT22;29247;50.944;5.382;2023-06-14T14:46:47;27.30;33.40
43651;DHT22;29247;50.944;5.382;2023-06-14T14:49:15;27.30;32.90
43651;DHT22;29247;50.944;5.382;2023-06-14T14:51:41;27.30;32.60
43651;DHT22;29247;50.944;5.382;2023-06-14T14:54:09;27.30;32.60
43651;DHT22;29247;50.944;5.382;2023-06-14T14:56:39;27.30;32.90
43651;DHT22;29247;50.944;5.382;2023-06-14T14:59:08;27.30;32.80
43651;DHT22;29247;50.944;5.382;2023-06-14T15:01:34;27.30;32.00
43651;DHT22;29247;50.944;5.382;2023-06-14T15:04:04;27.30;32.00
43651;DHT22;29247;50.944;5.382;2023-06-14T15:06:31;27.20;32.10
43651;DHT22;29247;50.944;5.382;2023-06-14T15:08:57;27.20;33.10
43651;DHT22;29247;50.944;5.382;2023-06-14T15:11:25;27.20;33.60
43651;DHT22;29247;50.944;5.382;2023-06-14T15:13:53;27.20;33.50
43651;DHT22;29247;50.944;5.382;2023-06-14T15:16:21;27.20;33.60
43651;DHT22;29247;50.944;5.382;2023-06-14T15:18:47;27.10;33.60
43651;DHT22;29247;50.944;5.382;2023-06-14T15:21:17;27.20;33.80
43651;DHT22;29247;50.944;5.382;2023-06-14T15:23:45;27.10;33.70
43651;DHT22;29247;50.944;5.382;2023-06-14T15:26:11;27.10;33.30
43651;DHT22;29247;50.944;5.382;2023-06-14T15:28:37;27.00;33.40
43651;DHT22;29247;50.944;5.382;2023-06-14T15:31:03;27.00;33.50
43651;DHT22;29247;50.944;5.382;2023-06-14T15:33:31;27.00;33.70
43651;DHT22;29247;50.944;5.382;2023-06-14T15:35:57;27.00;33.40
43651;DHT22;29247;50.944;5.382;2023-06-14T15:38:22;27.00;34.00
43651;DHT22;29247;50.944;5.382;2023-06-14T15:40:48;27.00;33.10
43651;DHT22;29247;50.944;5.382;2023-06-14T15:43:14;27.00;32.70
43651;DHT22;29247;50.944;5.382;2023-06-14T15:45:39;27.00;33.30
43651;DHT22;29247;50.944;5.382;2023-06-14T15:48:09;27.10;33.40
43651;DHT22;29247;50.944;5.382;2023-06-14T15:50:35;27.10;33.40
43651;DHT22;29247;50.944;5.382;2023-06-14T15:53:04;27.20;33.20
43651;DHT22;29247;50.944;5.382;2023-06-14T15:55:30;27.20;33.30